Time;durP1;ratioP1;P1;durP2;ratioP2;P2;SDS_P1;SDS_P2;PMS_P1;PMS_P2;Temp;Humidity;BMP_temperature;BMP_pressure;BME280_temperature;BME280_humidity;BME280_pressure;Samples;Min_cycle;Max_cycle;Signal;HPM_P1;HPM_P2
2022/03/13 00:00:45;;;;;;;;;;;21.50;35.50;;;;;;5073758;28;19925;-46
2022/03/13 00:03:14;;;;;;;;;;;21.50;35.50;;;;;;5073049;28;19924;-44
2022/03/13 00:05:46;;;;;;;;;;;21.50;35.50;;;;;;5073951;28;20015;-46
2022/03/13 00:08:16;;;;;;;;;;;21.40;35.40;;;;;;5073295;28;19978;-43
2022/03/13 00:10:47;;;;;;;;;;;21.40;35.40;;;;;;5073812;28;20330;-44
2022/03/13 00:13:17;;;;;;;;;;;21.50;35.50;;;;;;5073745;28;19924;-45
2022/03/13 00:15:45;;;;;;;;;;;21.40;35.50;;;;;;5073965;28;19994;-44
2022/03/13 00:18:12;;;;;;;;;;;21.40;35.40;;;;;;5072870;28;19964;-47
2022/03/13 00:20:39;;;;;;;;;;;21.40;35.50;;;;;;5073635;28;19924;-44
2022/03/13 00:23:07;;;;;;;;;;;21.40;35.50;;;;;;5073014;28;20280;-45
2022/03/13 00:25:34;;;;;;;;;;;21.40;35.50;;;;;;5073610;28;19925;-47
2022/03/13 00:28:01;;;;;;;;;;;21.40;35.50;;;;;;5073697;28;20352;-43
2022/03/13 00:30:28;;;;;;;;;;;21.40;35.50;;;;;;5073722;28;19960;-45
2022/03/13 00:32:55;;;;;;;;;;;21.40;35.50;;;;;;5055002;28;19968;-45
2022/03/13 00:35:22;;;;;;;;;;;21.40;35.50;;;;;;5073596;28;19932;-46
2022/03/13 00:37:49;;;;;;;;;;;21.40;36.10;;;;;;5072582;28;19925;-46
2022/03/13 00:40:16;;;;;;;;;;;21.40;35.50;;;;;;5073413;28;19924;-45
2022/03/13 00:42:44;;;;;;;;;;;21.40;35.50;;;;;;5073665;28;19971;-43
2022/03/13 00:45:11;;;;;;;;;;;21.40;35.50;;;;;;5073242;28;19925;-47
2022/03/13 00:47:38;;;;;;;;;;;21.40;35.50;;;;;;5073169;28;19967;-44
2022/03/13 00:50:05;;;;;;;;;;;21.40;35.50;;;;;;5073240;28;19928;-45
2022/03/13 00:52:32;;;;;;;;;;;21.40;35.50;;;;;;5072347;28;19970;-45
2022/03/13 00:54:59;;;;;;;;;;;21.40;35.50;;;;;;5073170;28;19925;-44
2022/03/13 00:57:29;;;;;;;;;;;21.40;35.50;;;;;;5073167;28;19924;-42
2022/03/13 00:59:56;;;;;;;;;;;21.40;35.50;;;;;;5073217;28;20380;-44
2022/03/13 01:02:23;;;;;;;;;;;21.40;35.50;;;;;;5072616;28;20387;-44
2022/03/13 01:04:50;;;;;;;;;;;21.40;35.50;;;;;;5073151;28;19978;-47
2022/03/13 01:07:17;;;;;;;;;;;21.40;35.50;;;;;;5070828;28;19959;-43
2022/03/13 01:09:44;;;;;;;;;;;21.40;35.60;;;;;;5055328;28;20388;-45
2022/03/13 01:12:11;;;;;;;;;;;21.40;35.60;;;;;;5057137;28;20012;-44
2022/03/13 01:14:38;;;;;;;;;;;21.40;35.60;;;;;;5056848;28;19971;-44
2022/03/13 01:17:06;;;;;;;;;;;21.40;35.60;;;;;;5056851;28;19972;-46
2022/03/13 01:19:33;;;;;;;;;;;21.40;35.60;;;;;;5076671;28;20388;-43
2022/03/13 01:22:00;;;;;;;;;;;21.40;35.60;;;;;;5076462;28;20007;-43
2022/03/13 01:24:46;;;;;;;;;;;21.40;35.60;;;;;;5076129;28;19928;-45
2022/03/13 01:27:17;;;;;;;;;;;21.40;35.60;;;;;;5076632;28;19974;-45
2022/03/13 01:29:45;;;;;;;;;;;21.40;35.60;;;;;;5076865;28;19924;-45
2022/03/13 01:32:13;;;;;;;;;;;21.30;35.50;;;;;;5075829;28;20426;-46
2022/03/13 01:34:41;;;;;;;;;;;21.40;35.60;;;;;;5058952;28;19929;-42
2022/03/13 01:37:13;;;;;;;;;;;21.30;35.50;;;;;;5076445;28;20454;-46
2022/03/13 01:39:40;;;;;;;;;;;21.40;35.60;;;;;;5075460;28;20384;-46
2022/03/13 01:42:07;;;;;;;;;;;21.30;35.50;;;;;;5076334;28;20342;-42
2022/03/13 01:44:34;;;;;;;;;;;21.30;35.60;;;;;;5076342;28;20011;-43
2022/03/13 01:47:03;;;;;;;;;;;21.30;35.50;;;;;;5077380;28;19928;-44
2022/03/13 01:49:31;;;;;;;;;;;21.30;35.60;;;;;;5075471;28;19925;-46
2022/03/13 01:51:58;;;;;;;;;;;21.30;35.60;;;;;;5058515;28;19963;-50
2022/03/13 01:54:24;;;;;;;;;;;21.30;35.80;;;;;;5075031;28;19925;-53
2022/03/13 01:56:51;;;;;;;;;;;21.30;35.60;;;;;;5076405;28;20337;-50
2022/03/13 01:59:20;;;;;;;;;;;21.30;35.60;;;;;;5075992;28;19924;-51
2022/03/13 02:01:47;;;;;;;;;;;21.30;35.60;;;;;;5076983;28;19932;-49
2022/03/13 02:04:22;;;;;;;;;;;21.30;35.60;;;;;;5075667;28;20319;-49
2022/03/13 02:06:50;;;;;;;;;;;21.30;35.60;;;;;;5076235;28;19924;-50
2022/03/13 02:09:17;;;;;;;;;;;21.30;35.60;;;;;;5062689;28;19932;-52
2022/03/13 02:11:45;;;;;;;;;;;21.30;35.60;;;;;;5056068;28;20339;-46
2022/03/13 02:14:14;;;;;;;;;;;21.30;35.60;;;;;;5055748;28;19971;-46
2022/03/13 02:16:41;;;;;;;;;;;21.30;35.60;;;;;;5055984;28;19979;-44
2022/03/13 02:19:08;;;;;;;;;;;21.30;35.60;;;;;;5067143;28;19925;-44
2022/03/13 02:21:40;;;;;;;;;;;21.30;35.60;;;;;;5054071;28;19925;-43
2022/03/13 02:24:11;;;;;;;;;;;21.30;35.60;;;;;;5054672;28;19967;-44
2022/03/13 02:26:38;;;;;;;;;;;21.30;35.60;;;;;;5055562;28;19929;-46
2022/03/13 02:29:09;;;;;;;;;;;21.30;35.60;;;;;;5055800;28;19925;-45
2022/03/13 02:31:37;;;;;;;;;;;21.30;35.60;;;;;;5055362;28;19929;-46
2022/03/13 02:34:08;;;;;;;;;;;21.30;35.60;;;;;;5054846;28;19975;-47
2022/03/13 02:36:35;;;;;;;;;;;21.30;35.60;;;;;;5055937;28;20034;-44
2022/03/13 02:39:03;;;;;;;;;;;21.30;35.60;;;;;;5054565;28;19924;-43
2022/03/13 02:41:34;;;;;;;;;;;21.30;35.60;;;;;;5055156;28;20011;-47
2022/03/13 02:44:02;;;;;;;;;;;21.30;35.60;;;;;;5055515;28;19975;-45
2022/03/13 02:46:47;;;;;;;;;;;21.30;35.70;;;;;;5055440;28;20359;-48
2022/03/13 02:49:17;;;;;;;;;;;21.30;35.60;;;;;;5054764;28;19924;-44
2022/03/13 02:51:45;;;;;;;;;;;21.30;35.60;;;;;;5054753;28;19975;-49
2022/03/13 02:54:13;;;;;;;;;;;21.30;35.60;;;;;;5054370;28;19929;-42
2022/03/13 02:56:40;;;;;;;;;;;21.30;35.60;;;;;;5055826;28;19929;-43
2022/03/13 02:59:08;;;;;;;;;;;21.30;35.70;;;;;;5055186;28;19955;-42
2022/03/13 03:01:37;;;;;;;;;;;21.30;35.70;;;;;;5054818;28;19978;-44
2022/03/13 03:04:05;;;;;;;;;;;21.30;35.70;;;;;;5054617;28;19964;-43
2022/03/13 03:06:32;;;;;;;;;;;21.20;35.60;;;;;;5054795;28;19925;-42
2022/03/13 03:09:01;;;;;;;;;;;21.20;35.60;;;;;;5053935;28;19968;-42
2022/03/13 03:11:29;;;;;;;;;;;21.30;35.70;;;;;;5054595;28;19928;-43
2022/03/13 03:13:55;;;;;;;;;;;21.30;35.70;;;;;;5055737;28;19956;-46
2022/03/13 03:16:22;;;;;;;;;;;21.20;35.60;;;;;;5054810;28;19964;-43
2022/03/13 03:18:49;;;;;;;;;;;21.20;35.60;;;;;;5054706;28;19979;-44
2022/03/13 03:21:16;;;;;;;;;;;21.30;35.70;;;;;;5065025;28;20429;-44
2022/03/13 03:23:43;;;;;;;;;;;21.20;35.60;;;;;;5073625;28;19974;-43
2022/03/13 03:26:10;;;;;;;;;;;21.20;35.60;;;;;;5075128;28;19970;-43
2022/03/13 03:28:37;;;;;;;;;;;21.20;35.60;;;;;;5074622;28;19924;-42
2022/03/13 03:31:04;;;;;;;;;;;21.20;35.70;;;;;;5073882;28;20328;-44
2022/03/13 03:33:31;;;;;;;;;;;21.20;35.70;;;;;;5073893;28;19925;-44
2022/03/13 03:35:58;;;;;;;;;;;21.20;35.70;;;;;;5054444;28;19994;-43
2022/03/13 03:38:25;;;;;;;;;;;21.20;35.70;;;;;;5054440;28;19929;-46
2022/03/13 03:40:52;;;;;;;;;;;21.20;35.70;;;;;;5070652;28;20292;-42
2022/03/13 03:43:19;;;;;;;;;;;21.20;35.70;;;;;;5074325;28;19960;-44
2022/03/13 03:45:46;;;;;;;;;;;21.20;35.70;;;;;;5073962;28;20372;-46
2022/03/13 03:48:13;;;;;;;;;;;21.20;35.70;;;;;;5074828;28;19931;-44
2022/03/13 03:50:40;;;;;;;;;;;21.20;35.70;;;;;;5073178;28;20392;-42
2022/03/13 03:53:07;;;;;;;;;;;21.20;35.70;;;;;;5073480;28;19924;-42
2022/03/13 03:55:34;;;;;;;;;;;21.20;35.70;;;;;;5073317;28;20265;-43
2022/03/13 03:58:01;;;;;;;;;;;21.20;35.70;;;;;;5074131;28;19929;-43
2022/03/13 04:00:29;;;;;;;;;;;21.20;35.70;;;;;;5074119;28;19928;-43
2022/03/13 04:02:57;;;;;;;;;;;21.20;35.70;;;;;;5073758;28;19924;-42
2022/03/13 04:05:24;;;;;;;;;;;21.20;35.70;;;;;;5073326;28;20392;-44
2022/03/13 04:07:51;;;;;;;;;;;21.20;35.70;;;;;;5073735;28;20407;-42
2022/03/13 04:10:18;;;;;;;;;;;21.20;35.70;;;;;;5073103;28;19925;-44
2022/03/13 04:12:45;;;;;;;;;;;21.20;35.70;;;;;;5074140;28;19929;-42
2022/03/13 04:15:12;;;;;;;;;;;21.20;35.70;;;;;;5073947;28;19928;-43
2022/03/13 04:17:39;;;;;;;;;;;21.20;35.70;;;;;;5073953;28;20353;-42
2022/03/13 04:20:06;;;;;;;;;;;21.20;35.70;;;;;;5072858;28;19928;-43
2022/03/13 04:22:34;;;;;;;;;;;21.20;35.70;;;;;;5073782;28;19991;-45
2022/03/13 04:25:01;;;;;;;;;;;21.20;35.70;;;;;;5073058;28;19924;-43
2022/03/13 04:27:30;;;;;;;;;;;21.20;35.70;;;;;;5073489;28;19931;-45
2022/03/13 04:29:57;;;;;;;;;;;21.20;35.70;;;;;;5073399;28;19964;-45
2022/03/13 04:32:24;;;;;;;;;;;21.20;35.70;;;;;;5073401;28;19978;-46
2022/03/13 04:34:51;;;;;;;;;;;21.20;35.70;;;;;;5072671;28;19932;-46
2022/03/13 04:37:19;;;;;;;;;;;21.20;35.80;;;;;;5073469;28;19924;-45
2022/03/13 04:39:50;;;;;;;;;;;21.10;35.70;;;;;;5072661;28;20428;-44
2022/03/13 04:42:17;;;;;;;;;;;21.20;35.70;;;;;;5073421;28;20380;-45
2022/03/13 04:44:45;;;;;;;;;;;21.20;35.70;;;;;;5076059;28;19924;-44
2022/03/13 04:47:12;;;;;;;;;;;21.20;35.80;;;;;;5077195;28;19924;-45
2022/03/13 04:49:39;;;;;;;;;;;21.10;35.70;;;;;;5076499;28;19929;-43
2022/03/13 04:52:09;;;;;;;;;;;21.10;35.70;;;;;;5077345;28;19924;-44
2022/03/13 04:54:36;;;;;;;;;;;21.10;35.70;;;;;;5077110;28;19924;-43
2022/03/13 04:57:03;;;;;;;;;;;21.10;35.70;;;;;;5076657;28;19924;-42
2022/03/13 04:59:30;;;;;;;;;;;21.10;35.70;;;;;;5077174;28;19924;-43
2022/03/13 05:01:58;;;;;;;;;;;21.10;35.70;;;;;;5077415;28;20299;-44
2022/03/13 05:04:25;;;;;;;;;;;21.10;35.70;;;;;;5076600;28;20015;-44
2022/03/13 05:06:52;;;;;;;;;;;21.10;35.70;;;;;;5077250;28;19967;-53
2022/03/13 05:09:19;;;;;;;;;;;21.10;35.70;;;;;;5076885;28;20018;-50
2022/03/13 05:11:46;;;;;;;;;;;21.10;35.70;;;;;;5076385;28;19935;-51
2022/03/13 05:14:13;;;;;;;;;;;21.10;35.80;;;;;;5076859;28;19931;-49
2022/03/13 05:16:40;;;;;;;;;;;21.10;35.80;;;;;;5077137;28;20043;-52
2022/03/13 05:19:07;;;;;;;;;;;21.10;35.80;;;;;;5076763;28;20423;-45
2022/03/13 05:21:36;;;;;;;;;;;21.10;36.30;;;;;;5075785;28;19929;-47
2022/03/13 05:24:04;;;;;;;;;;;21.10;35.70;;;;;;5058278;28;20404;-46
2022/03/13 05:26:32;;;;;;;;;;;21.10;35.80;;;;;;5076196;28;19977;-46
2022/03/13 05:28:59;;;;;;;;;;;21.10;35.70;;;;;;5076817;28;19972;-47
2022/03/13 05:31:26;;;;;;;;;;;21.10;35.70;;;;;;5076440;28;19935;-44
2022/03/13 05:33:53;;;;;;;;;;;21.10;35.70;;;;;;5076807;28;19929;-45
2022/03/13 05:36:20;;;;;;;;;;;21.10;35.80;;;;;;5075654;28;19975;-50
2022/03/13 05:38:47;;;;;;;;;;;21.10;35.70;;;;;;5076354;28;19987;-44
2022/03/13 05:41:14;;;;;;;;;;;21.10;35.70;;;;;;5075908;28;19978;-46
2022/03/13 05:43:42;;;;;;;;;;;21.10;35.70;;;;;;5076336;28;19932;-51
2022/03/13 05:46:09;;;;;;;;;;;21.10;35.80;;;;;;5076466;28;19925;-48
2022/03/13 05:48:37;;;;;;;;;;;21.10;35.80;;;;;;5076486;28;20291;-50
2022/03/13 05:51:04;;;;;;;;;;;21.10;35.80;;;;;;5075535;28;20304;-48
2022/03/13 05:53:31;;;;;;;;;;;21.10;35.70;;;;;;5076364;28;19970;-43
2022/03/13 05:55:58;;;;;;;;;;;21.10;35.70;;;;;;5074666;28;20007;-45
2022/03/13 05:58:25;;;;;;;;;;;21.10;35.80;;;;;;5076053;28;19979;-46
2022/03/13 06:01:03;;;;;;;;;;;21.10;35.80;;;;;;5076008;28;19974;-45
2022/03/13 06:03:30;;;;;;;;;;;21.10;35.70;;;;;;5075978;28;20011;-44
2022/03/13 06:05:57;;;;;;;;;;;21.10;35.80;;;;;;5075296;28;19925;-46
2022/03/13 06:08:24;;;;;;;;;;;21.10;35.70;;;;;;5076735;28;19971;-45
2022/03/13 06:10:51;;;;;;;;;;;21.10;35.70;;;;;;5074826;28;20458;-47
2022/03/13 06:13:20;;;;;;;;;;;21.10;35.70;;;;;;5075335;28;19924;-45
2022/03/13 06:15:49;;;;;;;;;;;21.10;35.70;;;;;;5075911;28;19925;-46
2022/03/13 06:18:17;;;;;;;;;;;21.10;35.70;;;;;;5075698;28;20436;-45
2022/03/13 06:20:43;;;;;;;;;;;21.10;35.70;;;;;;5074382;28;20425;-41
2022/03/13 06:23:13;;;;;;;;;;;21.10;35.70;;;;;;5075636;28;19924;-44
2022/03/13 06:25:43;;;;;;;;;;;21.10;35.70;;;;;;5075691;28;19924;-44
2022/03/13 06:28:14;;;;;;;;;;;21.10;35.70;;;;;;5074916;28;19931;-46
2022/03/13 06:30:42;;;;;;;;;;;21.10;35.70;;;;;;5076556;28;19947;-47
2022/03/13 06:33:09;;;;;;;;;;;21.10;35.60;;;;;;5075596;28;20269;-42
2022/03/13 06:35:36;;;;;;;;;;;21.10;35.60;;;;;;5074520;28;19936;-47
2022/03/13 06:38:03;;;;;;;;;;;21.10;35.60;;;;;;5075618;28;19928;-46
2022/03/13 06:40:30;;;;;;;;;;;21.20;35.70;;;;;;5057687;28;19924;-46
2022/03/13 06:42:58;;;;;;;;;;;21.10;35.60;;;;;;5074387;28;20445;-46
2022/03/13 06:45:25;;;;;;;;;;;21.10;35.60;;;;;;5075150;28;19931;-46
2022/03/13 06:47:52;;;;;;;;;;;21.10;36.20;;;;;;5075339;28;19925;-48
2022/03/13 06:50:22;;;;;;;;;;;21.10;35.60;;;;;;5075053;28;19925;-44
2022/03/13 06:52:50;;;;;;;;;;;21.10;35.60;;;;;;5073952;28;19924;-44
2022/03/13 06:55:18;;;;;;;;;;;21.10;35.60;;;;;;5075328;28;20011;-45
2022/03/13 06:57:46;;;;;;;;;;;21.10;35.60;;;;;;5074177;28;19930;-42
2022/03/13 07:00:13;;;;;;;;;;;21.10;35.60;;;;;;5074819;28;19978;-43
2022/03/13 07:02:45;;;;;;;;;;;21.10;35.60;;;;;;5074806;28;19924;-45
2022/03/13 07:05:13;;;;;;;;;;;21.20;35.70;;;;;;5057442;28;19979;-44
2022/03/13 07:07:40;;;;;;;;;;;21.20;35.60;;;;;;5072895;28;19928;-46
2022/03/13 07:10:11;;;;;;;;;;;21.20;35.60;;;;;;5057726;28;19944;-44
2022/03/13 07:12:39;;;;;;;;;;;21.20;35.60;;;;;;5073700;28;19979;-43
2022/03/13 07:15:10;;;;;;;;;;;21.20;35.60;;;;;;5074881;28;20359;-46
2022/03/13 07:17:37;;;;;;;;;;;21.20;35.60;;;;;;5074516;28;20410;-45
2022/03/13 07:20:05;;;;;;;;;;;21.20;36.20;;;;;;5074554;28;19964;-43
2022/03/13 07:22:32;;;;;;;;;;;21.20;35.60;;;;;;5073728;28;19967;-45
2022/03/13 07:24:59;;;;;;;;;;;21.20;35.50;;;;;;5074716;28;19970;-43
2022/03/13 07:27:26;;;;;;;;;;;21.20;35.50;;;;;;5048110;28;20293;-45
2022/03/13 07:29:53;;;;;;;;;;;21.20;35.50;;;;;;5054311;28;19928;-43
2022/03/13 07:32:20;;;;;;;;;;;21.20;35.50;;;;;;5054193;28;20019;-46
2022/03/13 07:34:48;;;;;;;;;;;21.20;35.50;;;;;;5054247;28;19924;-44
2022/03/13 07:37:14;;;;;;;;;;;21.20;35.50;;;;;;5064263;28;19964;-44
2022/03/13 07:39:42;;;;;;;;;;;21.20;35.50;;;;;;5074076;28;19924;-46
2022/03/13 07:42:10;;;;;;;;;;;21.20;35.40;;;;;;5073317;28;20011;-45
2022/03/13 07:44:37;;;;;;;;;;;21.30;35.50;;;;;;5074248;28;20037;-44
2022/03/13 07:47:04;;;;;;;;;;;21.30;35.50;;;;;;5074000;28;19976;-45
2022/03/13 07:49:31;;;;;;;;;;;21.30;35.40;;;;;;5074205;28;19925;-44
2022/03/13 07:51:58;;;;;;;;;;;21.30;35.40;;;;;;5073096;28;19924;-45
2022/03/13 07:54:25;;;;;;;;;;;21.30;35.40;;;;;;5074106;28;19978;-44
2022/03/13 07:56:52;;;;;;;;;;;21.30;35.40;;;;;;5073322;28;19932;-45
2022/03/13 07:59:18;;;;;;;;;;;21.30;35.40;;;;;;5074357;28;19925;-44
2022/03/13 08:01:47;;;;;;;;;;;21.30;35.40;;;;;;5073857;28;19924;-44
2022/03/13 08:04:14;;;;;;;;;;;21.30;35.30;;;;;;5073802;28;20376;-45
2022/03/13 08:06:42;;;;;;;;;;;21.30;35.30;;;;;;5072931;28;19943;-44
2022/03/13 08:09:09;;;;;;;;;;;21.30;35.20;;;;;;5074036;28;20343;-44
2022/03/13 08:11:38;;;;;;;;;;;21.30;35.20;;;;;;5056098;28;19983;-45
2022/03/13 08:14:09;;;;;;;;;;;21.40;35.30;;;;;;5073368;28;19931;-44
2022/03/13 08:16:36;;;;;;;;;;;21.40;35.30;;;;;;5073718;28;20388;-44
2022/03/13 08:19:05;;;;;;;;;;;21.40;35.20;;;;;;5073409;28;19924;-45
2022/03/13 08:21:32;;;;;;;;;;;21.40;35.20;;;;;;5051413;28;20019;-43
2022/03/13 08:23:59;;;;;;;;;;;21.40;35.10;;;;;;5053720;28;19975;-42
2022/03/13 08:26:27;;;;;;;;;;;21.40;35.10;;;;;;5053843;28;20337;-50
2022/03/13 08:28:54;;;;;;;;;;;21.40;35.00;;;;;;5038230;28;19925;-48
2022/03/13 08:31:22;;;;;;;;;;;21.40;34.90;;;;;;5033623;28;19972;-51
2022/03/13 08:33:50;;;;;;;;;;;21.40;34.90;;;;;;5033470;28;19964;-49
2022/03/13 08:36:17;;;;;;;;;;;21.40;34.80;;;;;;5033492;28;20458;-51
2022/03/13 08:38:44;;;;;;;;;;;21.40;34.80;;;;;;5033254;28;19948;-52
2022/03/13 08:41:11;;;;;;;;;;;21.40;34.80;;;;;;5033488;28;19932;-49
2022/03/13 08:43:38;;;;;;;;;;;21.40;34.70;;;;;;5044126;28;20012;-50
2022/03/13 08:46:05;;;;;;;;;;;21.50;34.70;;;;;;5053414;28;19976;-49
2022/03/13 08:48:34;;;;;;;;;;;21.50;34.70;;;;;;5053653;28;19968;-49
2022/03/13 08:51:02;;;;;;;;;;;21.50;34.70;;;;;;5053097;28;19975;-47
2022/03/13 08:53:29;;;;;;;;;;;21.50;34.70;;;;;;5038942;28;19979;-49
2022/03/13 08:55:56;;;;;;;;;;;21.50;34.60;;;;;;5033693;28;19972;-45
2022/03/13 08:58:23;;;;;;;;;;;21.50;34.50;;;;;;5040424;28;19925;-46
2022/03/13 09:00:50;;;;;;;;;;;21.50;34.50;;;;;;5053554;28;19928;-45
2022/03/13 09:03:18;;;;;;;;;;;21.60;34.50;;;;;;5053202;28;19924;-49
2022/03/13 09:05:47;;;;;;;;;;;21.50;34.40;;;;;;5053206;28;19925;-49
2022/03/13 09:08:15;;;;;;;;;;;21.50;34.40;;;;;;5052791;28;19967;-45
2022/03/13 09:10:41;;;;;;;;;;;21.60;34.40;;;;;;5053458;28;19968;-45
2022/03/13 09:13:08;;;;;;;;;;;21.60;34.40;;;;;;5052127;28;19925;-42
2022/03/13 09:15:39;;;;;;;;;;;21.60;34.30;;;;;;5053901;28;19964;-47
2022/03/13 09:18:07;;;;;;;;;;;21.60;34.30;;;;;;5053411;28;20295;-44
2022/03/13 09:20:34;;;;;;;;;;;21.60;34.20;;;;;;5057820;28;20011;-51
2022/03/13 09:23:01;;;;;;;;;;;21.60;34.20;;;;;;5072049;28;19971;-45
2022/03/13 09:25:27;;;;;;;;;;;21.60;34.20;;;;;;5073383;28;19983;-46
2022/03/13 09:27:54;;;;;;;;;;;21.70;34.20;;;;;;5072172;28;19925;-50
2022/03/13 09:30:21;;;;;;;;;;;21.70;34.20;;;;;;5074814;28;20003;-45
2022/03/13 09:32:49;;;;;;;;;;;21.70;34.20;;;;;;5076429;28;19947;-48
2022/03/13 09:35:16;;;;;;;;;;;21.70;34.20;;;;;;5076799;28;19924;-43
2022/03/13 09:37:43;;;;;;;;;;;21.70;34.20;;;;;;5072701;28;19987;-44
2022/03/13 09:40:13;;;;;;;;;;;21.70;34.10;;;;;;5056418;28;19932;-45
2022/03/13 09:42:42;;;;;;;;;;;21.70;34.10;;;;;;5056655;28;20331;-46
2022/03/13 09:45:11;;;;;;;;;;;21.70;34.10;;;;;;5073737;28;19964;-45
2022/03/13 09:47:38;;;;;;;;;;;21.80;34.20;;;;;;5076298;28;19925;-45
2022/03/13 09:50:06;;;;;;;;;;;21.80;34.10;;;;;;5076191;28;19924;-47
2022/03/13 09:52:36;;;;;;;;;;;21.80;34.10;;;;;;5075651;28;19967;-45
2022/03/13 09:55:03;;;;;;;;;;;21.80;34.10;;;;;;5076056;28;19925;-45
2022/03/13 09:57:30;;;;;;;;;;;21.80;34.10;;;;;;5058743;28;20015;-46
2022/03/13 09:59:57;;;;;;;;;;;21.80;34.10;;;;;;5075841;28;20288;-44
2022/03/13 10:02:34;;;;;;;;;;;21.80;34.00;;;;;;5075988;28;19970;-43
2022/03/13 10:05:21;;;;;;;;;;;21.90;34.10;;;;;;5075935;28;19924;-47
2022/03/13 10:08:00;;;;;;;;;;;21.80;34.00;;;;;;5075110;28;19930;-46
2022/03/13 10:10:39;;;;;;;;;;;21.90;34.10;;;;;;5076127;28;19935;-44
2022/03/13 10:13:07;;;;;;;;;;;21.90;34.00;;;;;;5076112;28;19928;-45
2022/03/13 10:15:47;;;;;;;;;;;21.90;34.00;;;;;;5057558;28;19972;-45
2022/03/13 10:18:18;;;;;;;;;;;21.90;34.00;;;;;;5055704;28;19924;-45
2022/03/13 10:20:46;;;;;;;;;;;21.90;34.00;;;;;;5055593;28;19925;-44
2022/03/13 10:23:17;;;;;;;;;;;22.00;34.10;;;;;;5058320;28;20131;-46
2022/03/13 10:25:45;;;;;;;;;;;22.00;34.10;;;;;;5075854;28;20497;-43
2022/03/13 10:28:23;;;;;;;;;;;22.00;34.00;;;;;;5075553;28;20376;-42
2022/03/13 10:30:59;;;;;;;;;;;22.00;34.00;;;;;;5074991;28;19924;-46
2022/03/13 10:33:46;;;;;;;;;;;22.00;34.00;;;;;;5076050;28;20035;-43
2022/03/13 10:36:34;;;;;;;;;;;22.00;34.00;;;;;;5075503;28;19925;-44
2022/03/13 10:39:04;;;;;;;;;;;22.00;34.00;;;;;;5074824;28;20338;-44
2022/03/13 10:41:47;;;;;;;;;;;22.10;34.10;;;;;;5075196;28;20372;-43
2022/03/13 10:44:18;;;;;;;;;;;22.10;34.10;;;;;;5074489;28;19971;-47
2022/03/13 10:46:52;;;;;;;;;;;22.10;34.10;;;;;;5075182;28;19975;-46
2022/03/13 10:49:31;;;;;;;;;;;22.10;34.00;;;;;;5075440;28;19930;-47
2022/03/13 10:52:01;;;;;;;;;;;22.10;34.10;;;;;;5075071;28;19932;-46
2022/03/13 10:54:29;;;;;;;;;;;22.10;34.00;;;;;;5074363;28;19928;-46
2022/03/13 10:57:03;;;;;;;;;;;22.10;34.00;;;;;;5074897;28;19970;-49
2022/03/13 10:59:30;;;;;;;;;;;22.10;34.00;;;;;;5074147;28;20396;-45
2022/03/13 11:02:13;;;;;;;;;;;22.20;34.00;;;;;;5075161;28;19994;-48
2022/03/13 11:04:51;;;;;;;;;;;22.20;34.10;;;;;;5074752;28;19924;-46
2022/03/13 11:07:19;;;;;;;;;;;22.20;34.00;;;;;;5075568;28;19932;-43
2022/03/13 11:09:47;;;;;;;;;;;22.20;34.00;;;;;;5073962;28;20419;-46
2022/03/13 11:12:20;;;;;;;;;;;22.20;34.00;;;;;;5074644;28;19975;-45
2022/03/13 11:14:49;;;;;;;;;;;22.20;34.00;;;;;;5073996;28;20384;-45
2022/03/13 11:17:18;;;;;;;;;;;22.20;34.00;;;;;;5074558;28;19929;-44
2022/03/13 11:19:47;;;;;;;;;;;22.20;34.00;;;;;;5074820;28;19993;-44
2022/03/13 11:22:17;;;;;;;;;;;22.30;34.00;;;;;;5074096;28;19958;-44
2022/03/13 11:24:44;;;;;;;;;;;22.20;34.00;;;;;;5073734;28;19928;-45
2022/03/13 11:27:13;;;;;;;;;;;22.20;33.90;;;;;;5074355;28;19925;-43
2022/03/13 11:29:52;;;;;;;;;;;22.30;34.00;;;;;;5069773;28;19978;-45
2022/03/13 11:32:29;;;;;;;;;;;22.30;34.00;;;;;;5054257;28;20428;-44
2022/03/13 11:35:11;;;;;;;;;;;22.30;34.00;;;;;;5054423;28;20338;-44
2022/03/13 11:37:43;;;;;;;;;;;22.30;34.00;;;;;;5054089;28;19939;-44
2022/03/13 11:40:12;;;;;;;;;;;22.30;34.00;;;;;;5067069;28;19924;-44
2022/03/13 11:42:47;;;;;;;;;;;22.40;34.00;;;;;;5074102;28;19929;-46
2022/03/13 11:45:28;;;;;;;;;;;22.40;34.00;;;;;;5073640;28;20350;-51
2022/03/13 11:47:55;;;;;;;;;;;22.40;34.00;;;;;;5074095;28;20438;-52
2022/03/13 11:50:41;;;;;;;;;;;22.40;34.00;;;;;;5073967;28;20384;-49
2022/03/13 11:53:15;;;;;;;;;;;22.40;34.00;;;;;;5073617;28;19970;-46
2022/03/13 11:56:09;;;;;;;;;;;22.40;34.00;;;;;;5073467;28;20332;-52
2022/03/13 11:58:40;;;;;;;;;;;22.40;33.90;;;;;;5073933;28;19925;-51
2022/03/13 12:01:07;;;;;;;;;;;22.40;33.90;;;;;;5073399;28;19924;-43
2022/03/13 12:03:35;;;;;;;;;;;22.40;34.00;;;;;;5074145;28;20334;-51
2022/03/13 12:06:03;;;;;;;;;;;22.40;33.90;;;;;;5074146;28;19978;-44
2022/03/13 12:08:48;;;;;;;;;;;22.50;34.00;;;;;;5074601;28;19967;-46
2022/03/13 12:11:35;;;;;;;;;;;22.50;34.00;;;;;;5073263;28;19966;-45
2022/03/13 12:14:02;;;;;;;;;;;22.50;34.00;;;;;;5073684;28;20383;-45
2022/03/13 12:16:29;;;;;;;;;;;22.50;34.00;;;;;;5072949;28;19925;-46
2022/03/13 12:18:58;;;;;;;;;;;22.50;33.90;;;;;;5073711;28;19924;-48
2022/03/13 12:21:25;;;;;;;;;;;22.50;34.00;;;;;;5073513;28;19924;-45
2022/03/13 12:23:52;;;;;;;;;;;22.50;34.00;;;;;;5073805;28;19970;-45
2022/03/13 12:26:22;;;;;;;;;;;22.50;34.00;;;;;;5072801;28;19977;-44
2022/03/13 12:28:54;;;;;;;;;;;22.50;34.00;;;;;;5074741;28;19986;-47
2022/03/13 12:31:21;;;;;;;;;;;22.50;34.00;;;;;;5061701;28;19929;-45
2022/03/13 12:33:49;;;;;;;;;;;22.50;34.00;;;;;;5053423;28;19929;-44
2022/03/13 12:36:17;;;;;;;;;;;22.50;34.00;;;;;;5053480;28;19978;-44
2022/03/13 12:38:45;;;;;;;;;;;22.60;34.00;;;;;;5053738;28;20334;-43
2022/03/13 12:41:14;;;;;;;;;;;22.60;34.00;;;;;;5070054;28;19955;-45
2022/03/13 12:43:44;;;;;;;;;;;22.50;34.00;;;;;;5073748;28;19925;-44
2022/03/13 12:46:12;;;;;;;;;;;22.60;34.00;;;;;;5063568;28;20327;-49
2022/03/13 12:48:51;;;;;;;;;;;22.60;34.00;;;;;;5053143;28;19964;-45
2022/03/13 12:51:38;;;;;;;;;;;22.60;34.00;;;;;;5053456;28;20027;-47
2022/03/13 12:54:07;;;;;;;;;;;22.60;34.00;;;;;;5053633;28;19932;-48
2022/03/13 12:56:45;;;;;;;;;;;22.60;34.00;;;;;;5071387;28;19994;-47
2022/03/13 12:59:28;;;;;;;;;;;22.60;33.90;;;;;;5073857;28;19925;-50
2022/03/13 13:02:16;;;;;;;;;;;22.70;34.00;;;;;;5072519;28;19932;-45
2022/03/13 13:04:48;;;;;;;;;;;22.60;33.90;;;;;;5074204;28;19924;-44
2022/03/13 13:07:16;;;;;;;;;;;22.70;34.00;;;;;;5077390;28;19925;-44
2022/03/13 13:09:47;;;;;;;;;;;22.70;34.00;;;;;;5076450;28;19924;-48
2022/03/13 13:12:19;;;;;;;;;;;22.70;34.00;;;;;;5077293;28;19947;-49
2022/03/13 13:14:48;;;;;;;;;;;22.70;34.10;;;;;;5077155;28;19972;-47
2022/03/13 13:17:17;;;;;;;;;;;22.70;34.00;;;;;;5075871;28;19925;-46
2022/03/13 13:19:45;;;;;;;;;;;22.70;34.00;;;;;;5076947;28;19974;-42
2022/03/13 13:22:13;;;;;;;;;;;22.70;34.10;;;;;;5076459;28;19925;-45
2022/03/13 13:24:48;;;;;;;;;;;22.70;34.10;;;;;;5076504;28;19966;-43
2022/03/13 13:27:34;;;;;;;;;;;22.70;34.10;;;;;;5076887;28;20375;-44
2022/03/13 13:30:21;;;;;;;;;;;22.70;34.10;;;;;;5076564;28;19928;-43
2022/03/13 13:32:53;;;;;;;;;;;22.70;34.10;;;;;;5075872;28;19940;-45
2022/03/13 13:35:23;;;;;;;;;;;22.70;34.10;;;;;;5076640;28;19970;-43
2022/03/13 13:38:05;;;;;;;;;;;22.70;34.00;;;;;;5076709;28;19924;-44
2022/03/13 13:40:40;;;;;;;;;;;22.70;34.10;;;;;;5075373;28;19971;-43
2022/03/13 13:43:10;;;;;;;;;;;22.70;34.00;;;;;;5076215;28;19925;-42
2022/03/13 13:45:39;;;;;;;;;;;22.70;34.00;;;;;;5076577;28;20412;-45
2022/03/13 13:48:26;;;;;;;;;;;22.70;34.00;;;;;;5074933;28;19925;-45
2022/03/13 13:51:16;;;;;;;;;;;22.70;34.00;;;;;;5076339;28;20061;-44
2022/03/13 13:53:48;;;;;;;;;;;22.80;34.10;;;;;;5076069;28;19932;-45
2022/03/13 13:56:16;;;;;;;;;;;22.80;34.10;;;;;;5075384;28;19924;-45
2022/03/13 13:58:44;;;;;;;;;;;22.80;34.10;;;;;;5076400;28;19978;-44
2022/03/13 14:01:22;;;;;;;;;;;22.80;34.10;;;;;;5075279;28;19975;-44
2022/03/13 14:03:50;;;;;;;;;;;22.80;34.00;;;;;;5075989;28;19979;-44
2022/03/13 14:06:21;;;;;;;;;;;22.80;34.00;;;;;;5075983;28;19925;-44
2022/03/13 14:08:48;;;;;;;;;;;22.80;34.00;;;;;;5076160;28;20361;-45
2022/03/13 14:11:17;;;;;;;;;;;22.80;34.00;;;;;;5075028;28;19924;-44
2022/03/13 14:13:44;;;;;;;;;;;22.80;34.00;;;;;;5075770;28;19925;-46
2022/03/13 14:16:12;;;;;;;;;;;22.80;34.00;;;;;;5074323;28;19924;-45
2022/03/13 14:18:39;;;;;;;;;;;22.80;34.00;;;;;;5056049;28;19932;-49
2022/03/13 14:21:07;;;;;;;;;;;22.80;34.10;;;;;;5055728;28;19924;-43
2022/03/13 14:23:34;;;;;;;;;;;22.80;34.00;;;;;;5055859;28;20004;-47
2022/03/13 14:26:01;;;;;;;;;;;22.80;33.90;;;;;;5061214;28;19947;-45
2022/03/13 14:28:28;;;;;;;;;;;22.80;34.00;;;;;;5075816;28;19928;-46